sensor_id;sensor_type;location;lat;lon;timestamp;P1;durP1;ratioP1;P2;durP2;ratioP2
22024;SDS011;11176;51.448;6.650;2022-10-16T15:46:26;2.58;;;1.00;;
22024;SDS011;11176;51.448;6.650;2022-10-16T15:48:55;3.97;;;0.90;;
22024;SDS011;11176;51.448;6.650;2022-10-16T15:51:22;2.25;;;0.73;;
22024;SDS011;11176;51.448;6.650;2022-10-16T15:53:50;2.75;;;0.70;;
22024;SDS011;11176;51.448;6.650;2022-10-16T15:56:17;2.85;;;0.80;;
22024;SDS011;11176;51.448;6.650;2022-10-16T15:58:43;2.85;;;0.90;;
22024;SDS011;11176;51.448;6.650;2022-10-16T16:01:10;1.83;;;0.85;;
22024;SDS011;11176;51.448;6.650;2022-10-16T16:03:37;2.50;;;0.70;;
22024;SDS011;11176;51.448;6.650;2022-10-16T16:06:07;3.95;;;0.98;;
22024;SDS011;11176;51.448;6.650;2022-10-16T16:08:35;2.15;;;0.80;;
22024;SDS011;11176;51.448;6.650;2022-10-16T16:11:04;4.25;;;1.00;;
22024;SDS011;11176;51.448;6.650;2022-10-16T16:13:32;3.25;;;0.95;;
22024;SDS011;11176;51.448;6.650;2022-10-16T16:15:58;2.20;;;0.70;;
22024;SDS011;11176;51.448;6.650;2022-10-16T16:18:25;2.15;;;0.90;;
22024;SDS011;11176;51.448;6.650;2022-10-16T16:20:51;1.98;;;0.73;;
22024;SDS011;11176;51.448;6.650;2022-10-16T16:23:18;2.63;;;1.10;;
22024;SDS011;11176;51.448;6.650;2022-10-16T16:26:01;2.17;;;0.90;;
22024;SDS011;11176;51.448;6.650;2022-10-16T16:28:28;2.85;;;1.08;;
22024;SDS011;11176;51.448;6.650;2022-10-16T16:30:56;2.55;;;0.98;;
22024;SDS011;11176;51.448;6.650;2022-10-16T16:33:23;1.88;;;1.00;;
22024;SDS011;11176;51.448;6.650;2022-10-16T16:35:50;3.08;;;1.10;;
22024;SDS011;11176;51.448;6.650;2022-10-16T16:38:16;3.55;;;1.33;;
22024;SDS011;11176;51.448;6.650;2022-10-16T16:40:42;3.78;;;1.40;;
22024;SDS011;11176;51.448;6.650;2022-10-16T16:43:09;3.47;;;1.20;;
22024;SDS011;11176;51.448;6.650;2022-10-16T16:45:36;4.07;;;1.60;;
22024;SDS011;11176;51.448;6.650;2022-10-16T16:48:02;5.50;;;1.80;;
22024;SDS011;11176;51.448;6.650;2022-10-16T16:50:28;3.50;;;1.85;;
22024;SDS011;11176;51.448;6.650;2022-10-16T16:52:55;5.93;;;2.20;;
22024;SDS011;11176;51.448;6.650;2022-10-16T16:55:21;3.60;;;1.90;;
22024;SDS011;11176;51.448;6.650;2022-10-16T16:57:48;5.40;;;2.22;;
22024;SDS011;11176;51.448;6.650;2022-10-16T17:00:14;6.65;;;2.50;;
22024;SDS011;11176;51.448;6.650;2022-10-16T17:02:41;4.38;;;2.28;;
22024;SDS011;11176;51.448;6.650;2022-10-16T17:05:09;5.63;;;2.67;;
22024;SDS011;11176;51.448;6.650;2022-10-16T17:07:35;6.60;;;3.10;;
22024;SDS011;11176;51.448;6.650;2022-10-16T17:10:02;8.75;;;3.20;;
22024;SDS011;11176;51.448;6.650;2022-10-16T17:12:29;7.93;;;3.60;;
22024;SDS011;11176;51.448;6.650;2022-10-16T17:14:56;7.30;;;3.60;;
22024;SDS011;11176;51.448;6.650;2022-10-16T17:17:22;8.52;;;4.32;;
22024;SDS011;11176;51.448;6.650;2022-10-16T17:19:49;10.88;;;4.47;;
22024;SDS011;11176;51.448;6.650;2022-10-16T17:22:16;7.22;;;4.55;;
22024;SDS011;11176;51.448;6.650;2022-10-16T17:24:44;9.98;;;4.50;;
22024;SDS011;11176;51.448;6.650;2022-10-16T17:27:10;10.40;;;5.57;;
22024;SDS011;11176;51.448;6.650;2022-10-16T17:29:37;8.73;;;5.45;;
22024;SDS011;11176;51.448;6.650;2022-10-16T17:32:04;10.20;;;4.95;;
22024;SDS011;11176;51.448;6.650;2022-10-16T17:34:31;9.15;;;5.18;;
22024;SDS011;11176;51.448;6.650;2022-10-16T17:36:57;11.52;;;5.50;;
22024;SDS011;11176;51.448;6.650;2022-10-16T17:39:23;8.07;;;5.18;;
22024;SDS011;11176;51.448;6.650;2022-10-16T17:41:50;10.18;;;4.88;;
22024;SDS011;11176;51.448;6.650;2022-10-16T17:44:16;8.35;;;4.25;;
22024;SDS011;11176;51.448;6.650;2022-10-16T17:46:50;9.65;;;5.05;;
22024;SDS011;11176;51.448;6.650;2022-10-16T17:49:18;8.43;;;4.80;;
22024;SDS011;11176;51.448;6.650;2022-10-16T17:51:45;9.38;;;4.45;;
22024;SDS011;11176;51.448;6.650;2022-10-16T17:54:15;9.48;;;5.28;;
22024;SDS011;11176;51.448;6.650;2022-10-16T17:56:42;7.57;;;4.80;;
22024;SDS011;11176;51.448;6.650;2022-10-16T17:59:08;6.80;;;4.13;;
22024;SDS011;11176;51.448;6.650;2022-10-16T18:01:36;6.63;;;3.95;;
22024;SDS011;11176;51.448;6.650;2022-10-16T18:04:06;8.75;;;4.32;;
22024;SDS011;11176;51.448;6.650;2022-10-16T20:03:23;13.23;;;8.85;;
22024;SDS011;11176;51.448;6.650;2022-10-16T20:05:50;13.52;;;8.02;;
22024;SDS011;11176;51.448;6.650;2022-10-16T20:08:18;11.18;;;7.13;;
22024;SDS011;11176;51.448;6.650;2022-10-16T20:10:49;14.65;;;7.88;;
22024;SDS011;11176;51.448;6.650;2022-10-16T20:13:17;12.32;;;7.38;;
22024;SDS011;11176;51.448;6.650;2022-10-16T20:15:44;8.80;;;5.43;;
22024;SDS011;11176;51.448;6.650;2022-10-16T20:18:11;8.32;;;5.20;;
22024;SDS011;11176;51.448;6.650;2022-10-16T20:20:39;5.97;;;3.95;;
22024;SDS011;11176;51.448;6.650;2022-10-16T20:23:06;4.43;;;3.30;;
22024;SDS011;11176;51.448;6.650;2022-10-16T20:25:36;6.20;;;3.70;;
22024;SDS011;11176;51.448;6.650;2022-10-16T20:28:04;4.28;;;3.10;;
22024;SDS011;11176;51.448;6.650;2022-10-16T20:30:32;4.22;;;3.20;;
22024;SDS011;11176;51.448;6.650;2022-10-16T20:33:03;7.85;;;3.40;;
22024;SDS011;11176;51.448;6.650;2022-10-16T20:35:34;5.13;;;3.20;;
22024;SDS011;11176;51.448;6.650;2022-10-16T20:38:05;5.28;;;3.20;;
22024;SDS011;11176;51.448;6.650;2022-10-16T20:40:33;4.82;;;3.10;;
22024;SDS011;11176;51.448;6.650;2022-10-16T20:43:00;5.95;;;3.85;;
22024;SDS011;11176;51.448;6.650;2022-10-16T20:45:28;4.70;;;3.30;;
22024;SDS011;11176;51.448;6.650;2022-10-16T20:47:54;6.80;;;3.38;;
22024;SDS011;11176;51.448;6.650;2022-10-16T20:50:21;6.05;;;3.55;;
22024;SDS011;11176;51.448;6.650;2022-10-16T20:52:48;6.25;;;3.50;;
22024;SDS011;11176;51.448;6.650;2022-10-16T20:55:14;5.47;;;3.33;;
22024;SDS011;11176;51.448;6.650;2022-10-16T20:57:43;7.68;;;3.70;;
22024;SDS011;11176;51.448;6.650;2022-10-16T21:00:09;6.35;;;3.45;;
22024;SDS011;11176;51.448;6.650;2022-10-16T21:02:36;5.15;;;3.33;;
22024;SDS011;11176;51.448;6.650;2022-10-16T21:05:03;4.78;;;3.15;;
22024;SDS011;11176;51.448;6.650;2022-10-16T21:07:30;4.78;;;3.10;;
22024;SDS011;11176;51.448;6.650;2022-10-16T21:09:57;4.60;;;2.88;;
22024;SDS011;11176;51.448;6.650;2022-10-16T21:12:24;7.07;;;3.35;;
22024;SDS011;11176;51.448;6.650;2022-10-16T21:14:51;4.95;;;3.33;;
22024;SDS011;11176;51.448;6.650;2022-10-16T21:17:37;4.75;;;2.83;;
22024;SDS011;11176;51.448;6.650;2022-10-16T21:20:04;4.60;;;3.10;;
22024;SDS011;11176;51.448;6.650;2022-10-16T21:22:31;6.00;;;3.25;;
22024;SDS011;11176;51.448;6.650;2022-10-16T21:24:57;5.05;;;3.20;;
22024;SDS011;11176;51.448;6.650;2022-10-16T21:27:24;5.30;;;3.42;;
22024;SDS011;11176;51.448;6.650;2022-10-16T21:29:51;4.05;;;2.83;;
22024;SDS011;11176;51.448;6.650;2022-10-16T21:32:19;6.13;;;3.08;;
22024;SDS011;11176;51.448;6.650;2022-10-16T21:34:48;3.55;;;2.50;;
22024;SDS011;11176;51.448;6.650;2022-10-16T21:37:15;4.20;;;2.83;;
22024;SDS011;11176;51.448;6.650;2022-10-16T21:39:41;4.22;;;3.20;;
22024;SDS011;11176;51.448;6.650;2022-10-16T21:42:08;4.55;;;2.88;;
22024;SDS011;11176;51.448;6.650;2022-10-16T21:44:34;3.45;;;2.50;;
22024;SDS011;11176;51.448;6.650;2022-10-16T21:47:01;3.92;;;2.72;;
22024;SDS011;11176;51.448;6.650;2022-10-16T21:49:27;5.15;;;3.30;;
22024;SDS011;11176;51.448;6.650;2022-10-16T21:51:53;5.43;;;3.95;;
22024;SDS011;11176;51.448;6.650;2022-10-16T21:54:21;9.45;;;5.78;;
22024;SDS011;11176;51.448;6.650;2022-10-16T21:56:48;9.50;;;7.15;;
22024;SDS011;11176;51.448;6.650;2022-10-16T21:59:15;8.55;;;6.60;;
22024;SDS011;11176;51.448;6.650;2022-10-16T22:01:41;10.10;;;6.70;;
22024;SDS011;11176;51.448;6.650;2022-10-16T22:04:09;9.07;;;7.00;;
22024;SDS011;11176;51.448;6.650;2022-10-16T22:06:37;8.48;;;6.45;;
22024;SDS011;11176;51.448;6.650;2022-10-16T22:09:03;8.45;;;6.22;;
22024;SDS011;11176;51.448;6.650;2022-10-16T22:11:32;7.60;;;5.47;;
22024;SDS011;11176;51.448;6.650;2022-10-16T22:14:08;7.97;;;5.15;;
22024;SDS011;11176;51.448;6.650;2022-10-16T22:16:37;7.32;;;5.10;;
22024;SDS011;11176;51.448;6.650;2022-10-16T22:19:04;6.90;;;5.45;;
22024;SDS011;11176;51.448;6.650;2022-10-16T22:21:33;8.75;;;5.50;;
22024;SDS011;11176;51.448;6.650;2022-10-16T22:24:01;8.68;;;5.55;;
22024;SDS011;11176;51.448;6.650;2022-10-16T22:26:27;9.38;;;7.10;;
22024;SDS011;11176;51.448;6.650;2022-10-16T22:28:53;8.48;;;6.53;;
22024;SDS011;11176;51.448;6.650;2022-10-16T22:31:21;6.93;;;5.50;;
22024;SDS011;11176;51.448;6.650;2022-10-16T22:33:52;6.05;;;4.82;;
22024;SDS011;11176;51.448;6.650;2022-10-16T22:36:27;7.13;;;5.13;;
22024;SDS011;11176;51.448;6.650;2022-10-16T22:38:54;6.70;;;4.20;;
22024;SDS011;11176;51.448;6.650;2022-10-16T22:41:21;5.10;;;3.85;;
22024;SDS011;11176;51.448;6.650;2022-10-16T22:43:49;6.28;;;4.32;;
22024;SDS011;11176;51.448;6.650;2022-10-16T22:46:17;7.80;;;5.47;;
22024;SDS011;11176;51.448;6.650;2022-10-16T22:48:45;5.75;;;4.38;;
22024;SDS011;11176;51.448;6.650;2022-10-16T22:51:12;5.95;;;3.85;;
22024;SDS011;11176;51.448;6.650;2022-10-16T22:53:42;5.45;;;3.70;;
22024;SDS011;11176;51.448;6.650;2022-10-16T22:56:10;5.00;;;3.72;;
22024;SDS011;11176;51.448;6.650;2022-10-16T22:58:38;7.18;;;4.00;;
22024;SDS011;11176;51.448;6.650;2022-10-16T23:01:16;4.53;;;3.40;;
22024;SDS011;11176;51.448;6.650;2022-10-16T23:03:50;5.75;;;4.13;;
22024;SDS011;11176;51.448;6.650;2022-10-16T23:06:16;6.60;;;3.95;;
22024;SDS011;11176;51.448;6.650;2022-10-16T23:08:43;7.75;;;4.10;;
22024;SDS011;11176;51.448;6.650;2022-10-16T23:11:11;5.43;;;4.05;;
22024;SDS011;11176;51.448;6.650;2022-10-16T23:13:38;5.30;;;3.97;;
22024;SDS011;11176;51.448;6.650;2022-10-16T23:16:08;8.45;;;3.90;;
22024;SDS011;11176;51.448;6.650;2022-10-16T23:18:35;5.38;;;4.00;;
22024;SDS011;11176;51.448;6.650;2022-10-16T23:21:05;8.32;;;4.47;;
22024;SDS011;11176;51.448;6.650;2022-10-16T23:23:34;6.25;;;4.30;;
22024;SDS011;11176;51.448;6.650;2022-10-16T23:26:02;6.85;;;4.68;;
22024;SDS011;11176;51.448;6.650;2022-10-16T23:28:32;7.38;;;4.55;;
22024;SDS011;11176;51.448;6.650;2022-10-16T23:30:59;7.30;;;4.10;;
22024;SDS011;11176;51.448;6.650;2022-10-16T23:33:25;5.88;;;4.22;;
22024;SDS011;11176;51.448;6.650;2022-10-16T23:35:52;6.38;;;4.25;;
22024;SDS011;11176;51.448;6.650;2022-10-16T23:38:18;6.85;;;4.20;;
22024;SDS011;11176;51.448;6.650;2022-10-16T23:40:45;6.07;;;4.43;;
22024;SDS011;11176;51.448;6.650;2022-10-16T23:43:11;5.95;;;4.25;;
22024;SDS011;11176;51.448;6.650;2022-10-16T23:45:37;7.90;;;4.57;;
22024;SDS011;11176;51.448;6.650;2022-10-16T23:48:04;7.07;;;4.45;;
22024;SDS011;11176;51.448;6.650;2022-10-16T23:50:30;7.10;;;4.68;;
22024;SDS011;11176;51.448;6.650;2022-10-16T23:52:57;6.35;;;4.82;;
22024;SDS011;11176;51.448;6.650;2022-10-16T23:55:23;6.25;;;4.22;;
22024;SDS011;11176;51.448;6.650;2022-10-16T23:57:50;12.80;;;5.07;;
